»·PEaware :: N522X KBLH-KSNA

N522X :: KBLH-KSNA

FLIGHT INFORMATION

Flight Status: Arrived
Operator: Privately registered:
United States
More flights under this callsign
Pilot: Rick S. (2164)
Aircraft: PIPER PA-24 COMMANCHE
(PA24)
More flights by this aircraft type
Origin: KBLH Blythe
United States
Destination: KSNA John Wayne-Orange Co
United States
More flights between these airports :: More routes between these airports
Route: BLH V64 SLI
File this flight plan on PilotEdge
Remarks:
Altitude:
(Current/Filed)
10,500ft
Speed:
(Current/Filed)
150kts
Departed: 04-Mar-18 05:12 PM
Arrived: 04-Mar-18 06:22 PM
Distance/Time
Traveled:
157nm/1:10
Distance/Time
To Go:
Arrived

Flight Plot

Page will automatically refresh every two minutes.

Flight plan parsing failed; only flown route is shown


Map Options




Map Legend


Flown Route
Filed Route
Departure Airport
Arrival Airport
Navaid (VOR, NDB)
Fix

Horizontal Profiles

Position Reports

Time Latitude Longitude Heading Altitude Ground
Speed
04-Mar-18 17:00 33.614344 -114.714610 168 400ft 0kts
04-Mar-18 17:01 33.614344 -114.714610 168 400ft 0kts
04-Mar-18 17:02 33.614344 -114.714610 168 400ft 0kts
04-Mar-18 17:03 33.614344 -114.714610 168 400ft 0kts
04-Mar-18 17:04 33.614344 -114.714610 168 400ft 0kts
04-Mar-18 17:05 33.614344 -114.714610 168 400ft 0kts
04-Mar-18 17:06 33.614344 -114.714610 168 400ft 0kts
04-Mar-18 17:07 33.614343 -114.714610 168 400ft 0kts
04-Mar-18 17:08 33.614341 -114.714609 168 400ft 0kts
04-Mar-18 17:09 33.614338 -114.714609 168 400ft 0kts
04-Mar-18 17:10 33.614335 -114.714608 168 400ft 0kts
04-Mar-18 17:11 33.614332 -114.714607 168 400ft 0kts
04-Mar-18 17:12 33.614329 -114.714606 168 400ft 0kts
04-Mar-18 17:13 33.614326 -114.714606 168 400ft 0kts
04-Mar-18 17:14 33.614324 -114.714605 168 400ft 0kts
04-Mar-18 17:15 33.614321 -114.714604 168 400ft 0kts
04-Mar-18 17:16 33.614318 -114.714604 168 400ft 0kts
04-Mar-18 17:17 33.614202 -114.714524 99 400ft 2kts
04-Mar-18 17:18 33.615070 -114.715997 268 400ft 0kts
04-Mar-18 17:19 33.620978 -114.716850 1 473ft 78kts
04-Mar-18 17:20 33.631751 -114.736970 263 1595ft 106kts
04-Mar-18 17:21 33.623225 -114.768851 255 2929ft 101kts
04-Mar-18 17:22 33.612992 -114.800538 258 4200ft 101kts
04-Mar-18 17:23 33.606994 -114.833901 268 5507ft 102kts
04-Mar-18 17:24 33.605022 -114.868240 276 6702ft 101kts
04-Mar-18 17:25 33.608605 -114.901197 287 7797ft 100kts
04-Mar-18 17:26 33.614419 -114.934008 287 8809ft 102kts
04-Mar-18 17:27 33.620728 -114.966480 288 9639ft 98kts
04-Mar-18 17:28 33.626084 -114.997485 280 10415ft 94kts
04-Mar-18 17:29 33.627340 -115.034179 274 10576ft 123kts
04-Mar-18 17:30 33.627435 -115.079126 272 10600ft 143kts
04-Mar-18 17:31 33.621966 -115.126790 265 10627ft 152kts
04-Mar-18 17:32 33.618515 -115.177132 273 10463ft 144kts
04-Mar-18 17:33 33.618130 -115.225659 270 10466ft 147kts
04-Mar-18 17:34 33.617532 -115.275207 277 10473ft 148kts
04-Mar-18 17:35 33.621990 -115.324314 279 10473ft 148kts
04-Mar-18 17:36 33.623476 -115.374147 273 10474ft 150kts
04-Mar-18 17:37 33.624048 -115.424048 275 10473ft 148kts
04-Mar-18 17:38 33.623139 -115.473667 269 10470ft 149kts
04-Mar-18 17:39 33.620803 -115.524748 274 10485ft 162kts
04-Mar-18 17:40 33.623954 -115.578469 277 10487ft 163kts
04-Mar-18 17:41 33.625048 -115.632614 274 10488ft 164kts
04-Mar-18 17:42 33.625719 -115.686291 275 10470ft 158kts
04-Mar-18 17:43 33.624220 -115.739042 270 10474ft 163kts
04-Mar-18 17:44 33.624378 -115.792722 279 10480ft 163kts
04-Mar-18 17:45 33.626421 -115.845318 272 10467ft 152kts
04-Mar-18 17:46 33.620386 -115.895052 255 10463ft 154kts
04-Mar-18 17:47 33.606236 -115.943591 256 10461ft 154kts
04-Mar-18 17:48 33.592016 -115.993393 256 10478ft 167kts
04-Mar-18 17:49 33.586803 -116.046663 275 10476ft 159kts
04-Mar-18 17:50 33.589261 -116.098439 280 10462ft 150kts
04-Mar-18 17:51 33.599353 -116.146019 288 10460ft 146kts
04-Mar-18 17:52 33.610376 -116.194636 287 10476ft 161kts
04-Mar-18 17:53 33.622546 -116.245605 287 10474ft 156kts
04-Mar-18 17:54 33.634259 -116.295476 287 10477ft 157kts
04-Mar-18 17:55 33.636743 -116.348645 278 10490ft 163kts
04-Mar-18 17:56 33.639541 -116.395901 278 10477ft 151kts
04-Mar-18 17:57 33.643767 -116.446903 280 10496ft 162kts
04-Mar-18 17:58 33.648301 -116.499178 279 10489ft 150kts
04-Mar-18 17:59 33.653152 -116.548376 279 10484ft 148kts
04-Mar-18 18:00 33.657966 -116.597287 278 10487ft 148kts
04-Mar-18 18:01 33.662964 -116.646415 279 10486ft 147kts
04-Mar-18 18:02 33.667638 -116.695232 280 10485ft 147kts
04-Mar-18 18:03 33.672801 -116.744772 280 10492ft 153kts
04-Mar-18 18:04 33.679275 -116.794563 287 10487ft 148kts
04-Mar-18 18:05 33.689721 -116.843623 286 10499ft 159kts
04-Mar-18 18:06 33.701334 -116.898325 287 9620ft 174kts
04-Mar-18 18:07 33.714556 -116.954817 289 8828ft 177kts
04-Mar-18 18:08 33.727678 -117.011418 289 8196ft 175kts
04-Mar-18 18:09 33.740650 -117.067585 288 7578ft 172kts
04-Mar-18 18:10 33.753971 -117.122724 289 6998ft 172kts
04-Mar-18 18:11 33.767643 -117.177490 289 6900ft 171kts
04-Mar-18 18:12 33.781455 -117.232323 290 6758ft 177kts
04-Mar-18 18:13 33.795649 -117.287888 289 6465ft 169kts
04-Mar-18 18:14 33.809184 -117.340772 290 6451ft 163kts
04-Mar-18 18:15 33.822517 -117.391947 290 6445ft 159kts
04-Mar-18 18:16 33.836204 -117.443041 290 6452ft 164kts
04-Mar-18 18:17 33.849965 -117.494128 290 6452ft 157kts
04-Mar-18 18:18 33.863562 -117.543515 289 6454ft 156kts
04-Mar-18 18:19 33.877311 -117.595346 288 6205ft 170kts
04-Mar-18 18:20 33.886409 -117.650887 270 5531ft 172kts
04-Mar-18 18:21 33.876729 -117.699424 244 4747ft 173kts
04-Mar-18 18:22 33.850663 -117.747110 232 4447ft 166kts
04-Mar-18 18:23 33.816381 -117.781111 211 3777ft 160kts
04-Mar-18 18:24 33.777030 -117.800289 200 2711ft 141kts
04-Mar-18 18:25 33.745779 -117.818004 213 2103ft 108kts
04-Mar-18 18:26 33.721629 -117.835132 209 1363ft 86kts
04-Mar-18 18:27 33.700617 -117.849617 212 790ft 87kts
04-Mar-18 18:28 33.682380 -117.862650 210 126ft 66kts
04-Mar-18 18:29 33.673863 -117.867619 125 59ft 3kts
04-Mar-18 18:30 33.673117 -117.865807 69 59ft 7kts
04-Mar-18 18:31 33.673334 -117.865627 28 59ft 0kts

Navigation Log

Ident Type
Flight plan parsing failed, navigation log unavailable